createdAt,value
2019-03-18T00:00:49.646Z,934.5
2019-03-18T00:01:49.545Z,934.5
2019-03-18T00:02:49.451Z,934.5
2019-03-18T00:03:49.343Z,934.5
2019-03-18T00:04:49.374Z,934.5
2019-03-18T00:05:49.273Z,934.5
2019-03-18T00:06:49.260Z,934.5
2019-03-18T00:07:49.172Z,934.5
2019-03-18T00:08:49.062Z,934.5
2019-03-18T00:09:49.400Z,934.5
2019-03-18T00:10:49.302Z,934.6
2019-03-18T00:11:49.293Z,934.6
2019-03-18T00:12:52.630Z,934.5
2019-03-18T00:13:52.517Z,934.5
2019-03-18T00:15:03.012Z,934.3
2019-03-18T00:16:02.910Z,934.4
2019-03-18T00:17:02.808Z,934.5
2019-03-18T00:18:05.799Z,934.5
2019-03-18T00:19:05.681Z,934.5
2019-03-18T00:20:06.004Z,934.5
2019-03-18T00:21:05.951Z,934.5
2019-03-18T00:22:05.879Z,934.5
2019-03-18T00:23:05.771Z,934.4
2019-03-18T00:24:05.668Z,934.4
2019-03-18T00:25:05.566Z,934.4
2019-03-18T00:26:05.466Z,934.4
2019-03-18T00:27:05.371Z,934.6
2019-03-18T00:28:05.259Z,934.5
2019-03-18T00:29:05.161Z,934.4
2019-03-18T00:30:05.575Z,934.5
2019-03-18T00:31:05.444Z,934.6
2019-03-18T00:32:05.340Z,934.7
2019-03-18T00:33:05.323Z,934.6
2019-03-18T00:34:05.261Z,934.6
2019-03-18T00:35:05.352Z,934.7
2019-03-18T00:36:05.299Z,934.6
2019-03-18T00:37:05.230Z,934.8
2019-03-18T00:38:05.155Z,934.8
2019-03-18T00:39:05.054Z,934.8
2019-03-18T00:40:05.459Z,934.8
2019-03-18T00:41:05.383Z,934.7
2019-03-18T00:42:05.259Z,934.6
2019-03-18T00:43:05.147Z,934.5
2019-03-18T00:44:05.040Z,934.8
2019-03-18T00:45:16.489Z,934.8
2019-03-18T00:46:16.389Z,934.8
2019-03-18T00:47:16.275Z,934.8
2019-03-18T00:48:16.171Z,934.8
2019-03-18T00:49:16.071Z,934.7
2019-03-18T00:50:16.418Z,934.7
2019-03-18T00:51:16.312Z,934.6
2019-03-18T00:52:16.269Z,934.4
2019-03-18T00:53:16.197Z,934.6
2019-03-18T00:54:16.081Z,934.6
2019-03-18T00:55:16.004Z,934.6
2019-03-18T00:56:15.893Z,934.5
2019-03-18T00:57:15.817Z,934.5
2019-03-18T00:58:15.712Z,934.6
2019-03-18T00:59:15.603Z,934.6
2019-03-18T01:00:15.976Z,934.6
2019-03-18T01:01:15.880Z,934.6
2019-03-18T01:02:15.781Z,934.6
2019-03-18T01:03:15.700Z,934.6
2019-03-18T01:04:15.613Z,934.5
2019-03-18T01:05:15.501Z,934.5
2019-03-18T01:06:15.425Z,934.5
2019-03-18T01:07:15.335Z,934.5
2019-03-18T01:08:15.225Z,934.5
2019-03-18T01:09:15.111Z,934.5
2019-03-18T01:10:15.447Z,934.4
2019-03-18T01:11:15.365Z,934.3
2019-03-18T01:12:15.257Z,934.4
2019-03-18T01:13:15.145Z,934.4
2019-03-18T01:14:15.038Z,934.5
2019-03-18T01:15:29.436Z,933.7
2019-03-18T01:16:29.345Z,933.8
2019-03-18T01:17:29.236Z,934.3
2019-03-18T01:18:29.123Z,934.4
2019-03-18T01:19:29.017Z,934.4
2019-03-18T01:20:29.338Z,934.4
2019-03-18T01:21:29.263Z,934.2
2019-03-18T01:22:29.182Z,934.4
2019-03-18T01:23:29.083Z,934.4
2019-03-18T01:24:28.965Z,934.2
2019-03-18T01:25:28.886Z,934.4
2019-03-18T01:26:28.807Z,934.4
2019-03-18T01:27:28.721Z,934.4
2019-03-18T01:28:28.715Z,934.2
2019-03-18T01:29:28.611Z,934.4
2019-03-18T01:30:28.897Z,934.3
2019-03-18T01:31:28.800Z,934.3
2019-03-18T01:32:28.805Z,934.3
2019-03-18T01:33:28.693Z,934.2
2019-03-18T01:34:28.598Z,934.1
2019-03-18T01:35:28.481Z,934.1
2019-03-18T01:36:28.384Z,934.1
2019-03-18T01:37:28.287Z,934.2
2019-03-18T01:38:28.195Z,934.2
2019-03-18T01:39:28.097Z,934.2
2019-03-18T01:40:28.469Z,934
2019-03-18T01:41:28.377Z,934
2019-03-18T01:42:28.272Z,934
2019-03-18T01:43:28.175Z,934.1
2019-03-18T01:44:28.058Z,934.2
2019-03-18T01:45:41.910Z,934.2
2019-03-18T01:46:41.845Z,934.2
2019-03-18T01:47:41.748Z,934.2
2019-03-18T01:48:41.666Z,934.2
2019-03-18T01:49:41.570Z,934.2
2019-03-18T01:50:41.954Z,934.2
2019-03-18T01:51:41.849Z,934.1
2019-03-18T01:52:41.557Z,934.1
2019-03-18T01:53:41.299Z,934.1
2019-03-18T01:54:41.032Z,934.1
2019-03-18T01:55:40.777Z,934.1
2019-03-18T01:56:40.527Z,934.1
2019-03-18T01:57:40.257Z,934.1
2019-03-18T01:58:39.999Z,934.2
2019-03-18T01:59:39.747Z,934
2019-03-18T02:00:40.117Z,934
2019-03-18T02:01:40.010Z,934.1
2019-03-18T02:02:39.912Z,934.1
2019-03-18T02:03:39.872Z,934.1
2019-03-18T02:04:39.986Z,934.1
2019-03-18T02:05:39.892Z,934
2019-03-18T02:06:39.848Z,934.1
2019-03-18T02:07:39.761Z,934.1
2019-03-18T02:08:39.639Z,934
2019-03-18T02:09:39.542Z,934
2019-03-18T02:10:39.880Z,934.1
2019-03-18T02:11:39.771Z,934
2019-03-18T02:12:39.661Z,934.1
2019-03-18T02:13:39.394Z,934
2019-03-18T02:14:39.122Z,934.1
2019-03-18T02:15:38.871Z,934
2019-03-18T02:16:38.608Z,933.9
2019-03-18T02:17:38.340Z,933.7
2019-03-18T02:18:38.062Z,933.8
2019-03-18T02:19:37.795Z,933.9
2019-03-18T02:20:38.072Z,933.9
2019-03-18T02:21:37.796Z,933.9
2019-03-18T02:22:37.538Z,933.9
2019-03-18T02:23:37.268Z,932.9
2019-03-18T02:24:36.999Z,933.9
2019-03-18T02:25:36.751Z,933.9
2019-03-18T02:26:36.507Z,934
2019-03-18T02:27:36.233Z,934
2019-03-18T02:28:35.955Z,933.9
2019-03-18T02:29:35.673Z,934
2019-03-18T02:30:36.040Z,934.1
2019-03-18T02:31:35.950Z,934
2019-03-18T02:32:35.856Z,933.9
2019-03-18T02:33:35.832Z,934
2019-03-18T02:34:35.736Z,934
2019-03-18T02:35:35.676Z,933.9
2019-03-18T02:36:35.642Z,934
2019-03-18T02:37:35.566Z,933.9
2019-03-18T02:38:35.469Z,934
2019-03-18T02:39:38.131Z,933.9
2019-03-18T02:40:38.495Z,933.8
2019-03-18T02:41:38.431Z,933.9
2019-03-18T02:42:38.356Z,933.9
2019-03-18T02:43:38.270Z,933.9
2019-03-18T02:44:38.170Z,933.9
2019-03-18T02:45:38.075Z,934
2019-03-18T02:46:38.010Z,934
2019-03-18T02:47:37.923Z,933.9
2019-03-18T02:48:37.836Z,933.9
2019-03-18T02:49:37.770Z,934
2019-03-18T02:50:38.171Z,933.9
2019-03-18T02:51:38.150Z,934.2
2019-03-18T02:52:38.098Z,934.1
2019-03-18T02:53:38.077Z,933
2019-03-18T02:54:38.027Z,934.1
2019-03-18T02:55:38.040Z,934.2
2019-03-18T02:56:37.991Z,934.2
2019-03-18T02:57:37.980Z,934.2
2019-03-18T02:58:37.884Z,934.1
2019-03-18T02:59:37.798Z,934.1
2019-03-18T03:00:38.157Z,934
2019-03-18T03:01:38.166Z,934
2019-03-18T03:02:38.081Z,933.9
2019-03-18T03:03:38.328Z,933.9
2019-03-18T03:04:38.377Z,933.7
2019-03-18T03:05:38.284Z,933.9
2019-03-18T03:06:38.200Z,933.8
2019-03-18T03:07:38.098Z,933.9
2019-03-18T03:08:38.054Z,933.9
2019-03-18T03:09:37.973Z,933.8
2019-03-18T03:10:38.369Z,933.8
2019-03-18T03:11:38.290Z,933.6
2019-03-18T03:12:38.268Z,933.7
2019-03-18T03:13:38.192Z,933.6
2019-03-18T03:14:38.136Z,933.6
2019-03-18T03:15:38.077Z,933.6
2019-03-18T03:16:37.973Z,933.6
2019-03-18T03:17:37.896Z,933.7
2019-03-18T03:18:37.847Z,933.7
2019-03-18T03:19:37.779Z,933.6
2019-03-18T03:20:38.084Z,933.7
2019-03-18T03:21:37.995Z,933.8
2019-03-18T03:22:37.965Z,933.7
2019-03-18T03:23:37.890Z,933.3
2019-03-18T03:24:37.834Z,933.8
2019-03-18T03:25:37.753Z,933.9
2019-03-18T03:26:37.645Z,933.9
2019-03-18T03:27:37.583Z,933.7
2019-03-18T03:28:37.589Z,933.7
2019-03-18T03:29:37.548Z,933.9
2019-03-18T03:30:38.032Z,934
2019-03-18T03:31:38.007Z,933.8
2019-03-18T03:32:38.044Z,933.8
2019-03-18T03:33:38.122Z,933.8
2019-03-18T03:34:38.205Z,933.8
2019-03-18T03:35:38.112Z,933.8
2019-03-18T03:36:38.030Z,933.9
2019-03-18T03:37:37.926Z,934
2019-03-18T03:38:37.845Z,933.9
2019-03-18T03:39:37.745Z,933.9
2019-03-18T03:40:38.107Z,933.8
2019-03-18T03:41:38.124Z,933.9
2019-03-18T03:42:38.167Z,933.9
2019-03-18T03:43:38.131Z,933.9
2019-03-18T03:44:38.038Z,933.8
2019-03-18T03:45:37.954Z,933.8
2019-03-18T03:46:44.901Z,933.8
2019-03-18T03:47:44.859Z,933.9
2019-03-18T03:48:44.807Z,933.9
2019-03-18T03:49:44.757Z,933.9
2019-03-18T03:50:45.288Z,933.9
2019-03-18T03:51:45.223Z,932.8
2019-03-18T03:52:44.989Z,933.9
2019-03-18T03:53:44.752Z,933.9
2019-03-18T03:54:44.509Z,933.8
2019-03-18T03:55:44.289Z,934
2019-03-18T03:56:44.065Z,933.9
2019-03-18T03:57:43.861Z,934
2019-03-18T03:58:43.618Z,934
2019-03-18T03:59:43.349Z,933.9
2019-03-18T04:00:43.892Z,933.9
2019-03-18T04:01:43.858Z,933.7
2019-03-18T04:02:43.785Z,933.8
2019-03-18T04:03:43.746Z,933.8
2019-03-18T04:04:43.671Z,933.7
2019-03-18T04:05:43.665Z,933.9
2019-03-18T04:06:43.562Z,933.8
2019-03-18T04:07:43.551Z,933.7
2019-03-18T04:08:43.452Z,933.8
2019-03-18T04:09:43.377Z,933.8
2019-03-18T04:10:43.878Z,933.8
2019-03-18T04:11:43.824Z,933.5
2019-03-18T04:12:43.801Z,933.7
2019-03-18T04:13:43.704Z,933.8
2019-03-18T04:14:43.646Z,933.8
2019-03-18T04:15:43.550Z,933.4
2019-03-18T04:17:03.426Z,933.9
2019-03-18T04:18:03.442Z,933.8
2019-03-18T04:19:03.374Z,933.8
2019-03-18T04:20:03.327Z,933.8
2019-03-18T04:21:03.684Z,933.9
2019-03-18T04:22:03.702Z,933.8
2019-03-18T04:23:03.731Z,933.8
2019-03-18T04:24:03.695Z,933.7
2019-03-18T04:25:03.652Z,933.7
2019-03-18T04:26:03.568Z,933.6
2019-03-18T04:27:03.618Z,933.7
2019-03-18T04:28:03.605Z,933.7
2019-03-18T04:29:03.740Z,933.7
2019-03-18T04:30:03.739Z,933.7
2019-03-18T04:31:04.208Z,933.6
2019-03-18T04:32:04.152Z,933.8
2019-03-18T04:33:04.153Z,933.8
2019-03-18T04:34:04.096Z,933.9
2019-03-18T04:35:04.045Z,933.1
2019-03-18T04:36:03.983Z,933.9
2019-03-18T04:37:03.903Z,933.9
2019-03-18T04:38:03.827Z,934
2019-03-18T04:39:03.745Z,934
2019-03-18T04:40:03.713Z,934
2019-03-18T04:41:04.078Z,933.8
2019-03-18T04:42:03.987Z,933.7
2019-03-18T04:43:03.705Z,933.9
2019-03-18T04:44:03.449Z,933.9
2019-03-18T04:45:03.199Z,934
2019-03-18T04:46:02.923Z,934
2019-03-18T04:47:15.270Z,933.8
2019-03-18T04:48:14.999Z,934
2019-03-18T04:49:14.723Z,934
2019-03-18T04:50:14.465Z,934
2019-03-18T04:51:14.826Z,934.1
2019-03-18T04:52:14.697Z,933.9
2019-03-18T04:53:14.604Z,933.9
2019-03-18T04:54:14.501Z,933.9
2019-03-18T04:55:14.407Z,933.8
2019-03-18T04:56:14.308Z,933.8
2019-03-18T04:57:14.190Z,934
2019-03-18T04:58:14.101Z,934
2019-03-18T04:59:14.015Z,934
2019-03-18T05:00:13.950Z,933.8
2019-03-18T05:01:14.345Z,933.6
2019-03-18T05:02:17.464Z,933.8
2019-03-18T05:03:17.347Z,933.5
2019-03-18T05:04:17.072Z,933.6
2019-03-18T05:05:16.799Z,933.6
2019-03-18T05:06:16.545Z,933.5
2019-03-18T05:07:16.278Z,933.6
2019-03-18T05:08:16.026Z,933.5
2019-03-18T05:09:15.757Z,933.6
2019-03-18T05:10:15.493Z,933.7
2019-03-18T05:11:15.925Z,933.6
2019-03-18T05:12:15.825Z,933.6
2019-03-18T05:13:15.740Z,933.7
2019-03-18T05:14:15.687Z,933.6
2019-03-18T05:15:15.575Z,933.7
2019-03-18T05:16:15.471Z,933.5
2019-03-18T05:17:27.867Z,933.5
2019-03-18T05:18:27.779Z,933.7
2019-03-18T05:19:27.755Z,933.8
2019-03-18T05:20:27.663Z,933.8
2019-03-18T05:21:27.981Z,933.7
2019-03-18T05:22:27.881Z,933.8
2019-03-18T05:23:27.789Z,933.7
2019-03-18T05:24:27.691Z,933.7
2019-03-18T05:25:27.581Z,933.8
2019-03-18T05:26:27.482Z,933.8
2019-03-18T05:27:27.388Z,933.7
2019-03-18T05:28:27.294Z,933.7
2019-03-18T05:29:27.282Z,933.7
2019-03-18T05:30:27.183Z,933.7
2019-03-18T05:31:27.485Z,933.6
2019-03-18T05:32:27.421Z,933.6
2019-03-18T05:33:27.396Z,933.7
2019-03-18T05:34:27.140Z,933.7
2019-03-18T05:35:26.874Z,933.7
2019-03-18T05:36:26.631Z,933.7
2019-03-18T05:37:26.367Z,933.6
2019-03-18T05:38:26.083Z,933.8
2019-03-18T05:39:25.817Z,933.8
2019-03-18T05:40:25.555Z,933.8
2019-03-18T05:41:25.859Z,933.8
2019-03-18T05:42:25.771Z,933.9
2019-03-18T05:43:25.659Z,933.9
2019-03-18T05:44:25.598Z,933.7
2019-03-18T05:45:25.581Z,933.8
2019-03-18T05:46:25.470Z,933.9
2019-03-18T05:47:25.517Z,933.2
2019-03-18T05:48:25.409Z,933.7
2019-03-18T05:49:25.389Z,933.8
2019-03-18T05:50:25.312Z,933.7
2019-03-18T05:51:25.591Z,933.8
2019-03-18T05:52:25.489Z,933.7
2019-03-18T05:53:25.396Z,933.7
2019-03-18T05:54:25.291Z,933.7
2019-03-18T05:55:25.189Z,933.7
2019-03-18T05:56:25.097Z,933.8
2019-03-18T05:57:27.091Z,933.7
2019-03-18T05:58:26.967Z,933.8
2019-03-18T05:59:26.867Z,933.8
2019-03-18T06:00:26.753Z,934
2019-03-18T06:01:27.046Z,934.1
2019-03-18T06:02:26.942Z,934
2019-03-18T06:03:26.864Z,934
2019-03-18T06:04:26.781Z,934.2
2019-03-18T06:05:26.675Z,934.2
2019-03-18T06:06:26.573Z,934.2
2019-03-18T06:07:26.468Z,934
2019-03-18T06:08:26.385Z,934.2
2019-03-18T06:09:26.391Z,934.2
2019-03-18T06:10:26.267Z,934.2
2019-03-18T06:11:26.588Z,934.2
2019-03-18T06:12:26.484Z,934.2
2019-03-18T06:13:26.386Z,934.1
2019-03-18T06:14:26.321Z,934
2019-03-18T06:15:26.205Z,933.9
2019-03-18T06:16:26.148Z,934.1
2019-03-18T06:17:26.182Z,934.1
2019-03-18T06:18:26.077Z,934.1
2019-03-18T06:19:26.031Z,934.1
2019-03-18T06:20:25.953Z,934.1
2019-03-18T06:21:26.287Z,934
2019-03-18T06:22:26.181Z,934.2
2019-03-18T06:23:26.071Z,934.2
2019-03-18T06:24:26.008Z,934.2
2019-03-18T06:25:26.107Z,934.2
2019-03-18T06:26:26.046Z,934.3
2019-03-18T06:27:26.161Z,934.3
2019-03-18T06:28:26.063Z,934.4
2019-03-18T06:29:28.361Z,933.4
2019-03-18T06:30:28.243Z,934.3
2019-03-18T06:31:28.572Z,934.2
2019-03-18T06:32:28.304Z,934.4
2019-03-18T06:33:28.023Z,934.5
2019-03-18T06:34:27.783Z,933
2019-03-18T06:35:27.534Z,934.4
2019-03-18T06:36:27.251Z,934.5
2019-03-18T06:37:26.998Z,934.6
2019-03-18T06:38:26.725Z,934.5
2019-03-18T06:39:26.446Z,934.4
2019-03-18T06:40:26.203Z,934.4
2019-03-18T06:41:26.528Z,934.5
2019-03-18T06:42:26.475Z,934.5
2019-03-18T06:43:26.381Z,934.6
2019-03-18T06:44:26.284Z,934.6
2019-03-18T06:45:26.189Z,934.6
2019-03-18T06:46:26.121Z,934.7
2019-03-18T06:47:28.947Z,934.7
2019-03-18T06:48:28.843Z,934.7
2019-03-18T06:49:28.788Z,934.7
2019-03-18T06:50:28.712Z,934.9
2019-03-18T06:51:29.033Z,934.8
2019-03-18T06:52:28.982Z,934.9
2019-03-18T06:53:28.930Z,934.9
2019-03-18T06:54:28.852Z,935
2019-03-18T06:55:28.773Z,935
2019-03-18T06:56:28.683Z,935
2019-03-18T06:57:28.583Z,935.1
2019-03-18T06:58:28.468Z,935
2019-03-18T06:59:28.367Z,934.9
2019-03-18T07:00:28.278Z,935.1
2019-03-18T07:01:28.607Z,935.1
2019-03-18T07:02:28.530Z,935.1
2019-03-18T07:03:28.416Z,935.1
2019-03-18T07:04:28.324Z,935.1
2019-03-18T07:05:28.236Z,935
2019-03-18T07:06:28.170Z,935
2019-03-18T07:07:28.092Z,935.1
2019-03-18T07:08:28.002Z,935
2019-03-18T07:09:27.884Z,935.2
2019-03-18T07:10:27.786Z,935.1
2019-03-18T07:11:28.241Z,935.1
2019-03-18T07:12:28.146Z,935.3
2019-03-18T07:13:28.053Z,935.3
2019-03-18T07:14:27.954Z,934.3
2019-03-18T07:15:27.859Z,935.2
2019-03-18T07:16:27.753Z,935.2
2019-03-18T07:17:27.674Z,935.3
2019-03-18T07:18:27.566Z,935.2
2019-03-18T07:19:27.464Z,935.2
2019-03-18T07:20:27.367Z,935
2019-03-18T07:21:27.721Z,935.2
2019-03-18T07:22:27.651Z,935
2019-03-18T07:23:27.560Z,935
2019-03-18T07:24:27.456Z,934.9
2019-03-18T07:25:27.370Z,935
2019-03-18T07:26:27.288Z,935
2019-03-18T07:27:27.207Z,934.8
2019-03-18T07:28:27.123Z,935
2019-03-18T07:29:27.043Z,934.9
2019-03-18T07:30:26.964Z,934.9
2019-03-18T07:31:27.280Z,934.9
2019-03-18T07:32:27.186Z,934.9
2019-03-18T07:33:27.111Z,934.9
2019-03-18T07:34:27.022Z,935
2019-03-18T07:35:26.924Z,935
2019-03-18T07:36:26.834Z,935
2019-03-18T07:37:26.754Z,934.8
2019-03-18T07:38:26.760Z,934.9
2019-03-18T07:39:26.684Z,935.1
2019-03-18T07:40:26.843Z,935
2019-03-18T07:41:27.218Z,935
2019-03-18T07:42:27.095Z,935
2019-03-18T07:43:26.862Z,935
2019-03-18T07:44:26.586Z,935.1
2019-03-18T07:45:26.312Z,935.2
2019-03-18T07:46:26.051Z,935.2
2019-03-18T07:47:25.997Z,935.2
2019-03-18T07:48:32.182Z,935.2
2019-03-18T07:49:31.918Z,935.2
2019-03-18T07:50:31.654Z,935.2
2019-03-18T07:51:32.017Z,935.3
2019-03-18T07:52:31.905Z,935.3
2019-03-18T07:53:31.788Z,935.3
2019-03-18T07:54:34.136Z,935.1
2019-03-18T07:55:34.038Z,935.3
2019-03-18T07:56:33.932Z,935.2
2019-03-18T07:57:33.831Z,935.2
2019-03-18T07:58:33.758Z,935.1
2019-03-18T07:59:33.678Z,933.7
2019-03-18T08:00:33.650Z,935.2
2019-03-18T08:01:34.222Z,935.2
2019-03-18T08:02:34.114Z,935.2
2019-03-18T08:03:37.207Z,935.2
2019-03-18T08:04:39.018Z,935
2019-03-18T08:05:38.928Z,935
2019-03-18T08:06:38.837Z,935
2019-03-18T08:07:38.742Z,935
2019-03-18T08:08:39.812Z,935
2019-03-18T08:09:39.831Z,935.2
2019-03-18T08:10:39.719Z,935.2
2019-03-18T08:11:40.100Z,935
2019-03-18T08:12:39.995Z,935
2019-03-18T08:13:42.472Z,935.1
2019-03-18T08:14:42.254Z,935.2
2019-03-18T08:15:41.983Z,935.2
2019-03-18T08:16:41.718Z,935.2
2019-03-18T08:17:41.453Z,935.2
2019-03-18T08:18:44.280Z,935.3
2019-03-18T08:19:44.038Z,935.2
2019-03-18T08:20:43.788Z,935.3
2019-03-18T08:21:44.140Z,935.3
2019-03-18T08:22:44.071Z,935.2
2019-03-18T08:23:43.983Z,935.4
2019-03-18T08:24:43.874Z,935.3
2019-03-18T08:25:43.801Z,935.3
2019-03-18T08:26:43.713Z,935.4
2019-03-18T08:27:43.637Z,935.5
2019-03-18T08:28:43.560Z,935.5
2019-03-18T08:29:43.438Z,935.4
2019-03-18T08:30:43.348Z,935.4
2019-03-18T08:31:43.749Z,935.5
2019-03-18T08:32:43.664Z,935.6
2019-03-18T08:33:43.574Z,935.5
2019-03-18T08:34:43.466Z,935.5
2019-03-18T08:35:43.381Z,935.5
2019-03-18T08:36:43.297Z,935.5
2019-03-18T08:37:43.199Z,935.5
2019-03-18T08:38:43.108Z,935.6
2019-03-18T08:39:43.213Z,935.5
2019-03-18T08:40:43.122Z,935.5
2019-03-18T08:41:43.460Z,935.5
2019-03-18T08:42:43.402Z,935.6
2019-03-18T08:43:43.281Z,935.5
2019-03-18T08:44:43.188Z,935.6
2019-03-18T08:45:43.118Z,935.7
2019-03-18T08:46:43.006Z,935.7
2019-03-18T08:47:42.908Z,935
2019-03-18T08:48:56.482Z,935.7
2019-03-18T08:49:56.434Z,935.6
2019-03-18T08:50:56.374Z,935.8
2019-03-18T08:51:56.775Z,935.7
2019-03-18T08:52:56.656Z,935.7
2019-03-18T08:53:56.559Z,935.8
2019-03-18T08:54:56.534Z,935.8
2019-03-18T08:55:56.448Z,935.8
2019-03-18T08:56:56.403Z,935.8
2019-03-18T08:57:56.344Z,935.8
2019-03-18T08:58:56.244Z,935.8
2019-03-18T08:59:56.140Z,935.9
2019-03-18T09:00:56.092Z,935.7
2019-03-18T09:01:56.450Z,935.9
2019-03-18T09:02:57.323Z,935.9
2019-03-18T09:03:57.223Z,935.9
2019-03-18T09:04:57.128Z,935.9
2019-03-18T09:05:57.013Z,935.9
2019-03-18T09:06:56.941Z,935.8
2019-03-18T09:07:56.857Z,935.7
2019-03-18T09:08:56.821Z,935.6
2019-03-18T09:09:56.728Z,935.8
2019-03-18T09:10:56.611Z,935.7
2019-03-18T09:11:56.975Z,935.7
2019-03-18T09:12:56.886Z,935.7
2019-03-18T09:13:56.803Z,935.7
2019-03-18T09:14:56.580Z,935.8
2019-03-18T09:15:56.333Z,935.8
2019-03-18T09:16:56.071Z,935.8
2019-03-18T09:17:55.816Z,935.7
2019-03-18T09:19:09.240Z,935.7
2019-03-18T09:20:09.059Z,935.9
2019-03-18T09:21:08.826Z,935.9
2019-03-18T09:22:09.183Z,935.9
2019-03-18T09:23:09.116Z,935.9
2019-03-18T09:24:09.078Z,936
2019-03-18T09:25:09.010Z,936
2019-03-18T09:26:08.939Z,936.1
2019-03-18T09:27:08.850Z,936.1
2019-03-18T09:28:08.765Z,936
2019-03-18T09:29:08.672Z,936.1
2019-03-18T09:30:08.599Z,936.1
2019-03-18T09:31:08.804Z,936
2019-03-18T09:32:09.189Z,936.3
2019-03-18T09:33:09.103Z,936.1
2019-03-18T09:34:08.984Z,936.4
2019-03-18T09:35:08.875Z,936.4
2019-03-18T09:36:08.764Z,936.4
2019-03-18T09:37:08.667Z,936.4
2019-03-18T09:38:08.579Z,936.4
2019-03-18T09:39:08.471Z,936.5
2019-03-18T09:40:08.357Z,936.6
2019-03-18T09:41:11.508Z,936.5
2019-03-18T09:42:12.057Z,936.6
2019-03-18T09:43:11.991Z,936.5
2019-03-18T09:44:11.871Z,936.6
2019-03-18T09:45:11.768Z,936.6
2019-03-18T09:46:11.665Z,936.8
2019-03-18T09:47:11.550Z,936.5
2019-03-18T09:48:11.433Z,936.7
2019-03-18T09:49:22.985Z,936.9
2019-03-18T09:50:22.931Z,936.8
2019-03-18T09:51:22.844Z,936.8
2019-03-18T09:52:23.270Z,936.8
2019-03-18T09:53:23.166Z,936.8
2019-03-18T09:54:23.130Z,937
2019-03-18T09:55:23.043Z,937
2019-03-18T09:56:22.937Z,937.1
2019-03-18T09:57:27.373Z,937
2019-03-18T09:58:27.261Z,937
2019-03-18T09:59:27.227Z,937
2019-03-18T10:00:27.177Z,937
2019-03-18T10:01:27.072Z,937
2019-03-18T10:02:27.503Z,937
2019-03-18T10:03:27.416Z,937
2019-03-18T10:04:27.152Z,937.1
2019-03-18T10:05:26.899Z,937.1
2019-03-18T10:06:26.644Z,936.9
2019-03-18T10:07:26.384Z,937
2019-03-18T10:08:26.135Z,937
2019-03-18T10:09:25.871Z,937
2019-03-18T10:10:25.649Z,936.8
2019-03-18T10:11:25.407Z,937.1
2019-03-18T10:12:25.757Z,937
2019-03-18T10:13:25.645Z,937
2019-03-18T10:14:25.575Z,936.9
2019-03-18T10:15:25.473Z,936.7
2019-03-18T10:16:25.390Z,936.8
2019-03-18T10:17:25.291Z,937
2019-03-18T10:18:25.374Z,937.1
2019-03-18T10:19:34.699Z,937.1
2019-03-18T10:20:34.639Z,937.2
2019-03-18T10:21:34.651Z,937.2
2019-03-18T10:22:36.965Z,937.2
2019-03-18T10:23:36.885Z,937.1
2019-03-18T10:24:36.784Z,937.3
2019-03-18T10:25:36.702Z,937.1
2019-03-18T10:26:36.604Z,937.2
2019-03-18T10:27:38.876Z,937.2
2019-03-18T10:28:38.777Z,935.7
2019-03-18T10:29:38.656Z,937.2
2019-03-18T10:30:38.587Z,936.3
2019-03-18T10:31:38.501Z,937.4
2019-03-18T10:32:38.809Z,936.7
2019-03-18T10:33:38.693Z,937.3
2019-03-18T10:34:38.580Z,937.3
2019-03-18T10:35:38.491Z,937.5
2019-03-18T10:36:38.407Z,937.2
2019-03-18T10:37:38.300Z,937.4
2019-03-18T10:38:38.187Z,937.4
2019-03-18T10:39:38.091Z,937.5
2019-03-18T10:40:37.984Z,937.4
2019-03-18T10:41:37.900Z,937.4
2019-03-18T10:42:38.229Z,937.4
2019-03-18T10:43:38.141Z,937.2
2019-03-18T10:44:38.033Z,937.4
2019-03-18T10:45:37.949Z,937.3
2019-03-18T10:46:37.866Z,937.5
2019-03-18T10:47:37.747Z,937.5
2019-03-18T10:48:37.648Z,937.4
2019-03-18T10:49:47.396Z,937.4
2019-03-18T10:50:47.327Z,937.5
2019-03-18T10:51:49.309Z,937.5
2019-03-18T10:52:49.807Z,937.3
2019-03-18T10:53:49.834Z,937.5
2019-03-18T10:54:49.648Z,937.5
2019-03-18T10:55:49.385Z,937.3
2019-03-18T10:56:49.138Z,937.5
2019-03-18T10:57:48.866Z,937.6
2019-03-18T10:58:48.605Z,937.5
2019-03-18T10:59:48.411Z,937.5
2019-03-18T11:00:48.152Z,937.6
2019-03-18T11:01:47.929Z,937.5
2019-03-18T11:02:48.271Z,937.5
2019-03-18T11:03:48.179Z,937.6
2019-03-18T11:04:48.077Z,937.5
2019-03-18T11:05:47.981Z,937.5
2019-03-18T11:06:47.892Z,937.6
2019-03-18T11:07:47.798Z,937.6
2019-03-18T11:08:47.701Z,937.5
2019-03-18T11:09:47.612Z,937.5
2019-03-18T11:10:47.519Z,937.6
2019-03-18T11:11:47.427Z,937.5
2019-03-18T11:12:47.785Z,937.5
2019-03-18T11:13:47.715Z,937.5
2019-03-18T11:14:47.645Z,937.4
2019-03-18T11:15:47.562Z,937.5
2019-03-18T11:16:47.475Z,937.3
2019-03-18T11:17:47.257Z,937.5
2019-03-18T11:18:46.971Z,937.3
2019-03-18T11:19:59.492Z,937.4
2019-03-18T11:20:59.234Z,937.4
2019-03-18T11:21:59.125Z,937.5
2019-03-18T11:22:59.523Z,937.4
2019-03-18T11:23:59.253Z,937.4
2019-03-18T11:24:58.978Z,937.4
2019-03-18T11:25:58.723Z,937.4
2019-03-18T11:26:58.643Z,937.4
2019-03-18T11:27:58.648Z,937.2
2019-03-18T11:28:58.580Z,937.3
2019-03-18T11:29:58.319Z,937.2
2019-03-18T11:30:58.227Z,937.2
2019-03-18T11:31:58.135Z,937.3
2019-03-18T11:32:58.286Z,937.3
2019-03-18T11:33:58.213Z,937.3
2019-03-18T11:34:58.107Z,937.3
2019-03-18T11:35:57.841Z,937.2
2019-03-18T11:36:57.573Z,937.3
2019-03-18T11:37:57.461Z,936.5
2019-03-18T11:38:57.378Z,937.3
2019-03-18T11:39:57.108Z,937.3
2019-03-18T11:40:57.005Z,937.2
2019-03-18T11:41:56.745Z,937.2
2019-03-18T11:42:57.058Z,937.2
2019-03-18T11:43:56.979Z,937.1
2019-03-18T11:44:56.882Z,937.1
2019-03-18T11:45:56.787Z,937.1
2019-03-18T11:46:56.749Z,937.2
2019-03-18T11:47:56.646Z,937.2
2019-03-18T11:48:56.542Z,937.2
2019-03-18T11:49:56.482Z,937.1
2019-03-18T11:50:56.410Z,936.9
2019-03-18T11:51:56.306Z,937
2019-03-18T11:52:56.651Z,937
2019-03-18T11:53:56.547Z,937.1
2019-03-18T11:54:56.467Z,937.2
2019-03-18T11:55:56.387Z,937.1
2019-03-18T11:56:56.279Z,937.2
2019-03-18T11:57:56.182Z,937.1
2019-03-18T11:58:56.113Z,937.1
2019-03-18T11:59:56.107Z,937
2019-03-18T12:00:56.019Z,937
2019-03-18T12:01:55.906Z,937
2019-03-18T12:02:58.463Z,936.8
2019-03-18T12:03:58.346Z,936.9
2019-03-18T12:04:58.689Z,937.1
2019-03-18T12:05:58.617Z,937.1
2019-03-18T12:06:58.519Z,937.1
2019-03-18T12:07:58.480Z,936.8
2019-03-18T12:08:58.397Z,935.7
2019-03-18T12:09:58.282Z,936.9
2019-03-18T12:10:58.207Z,937.1
2019-03-18T12:11:57.956Z,937.1
2019-03-18T12:12:58.279Z,937
2019-03-18T12:13:58.179Z,937.1
2019-03-18T12:14:58.074Z,937.1
2019-03-18T12:15:57.965Z,937
2019-03-18T12:16:57.879Z,937
2019-03-18T12:17:57.823Z,936.8
2019-03-18T12:18:57.748Z,937
2019-03-18T12:19:57.678Z,937
2019-03-18T12:20:57.560Z,937
2019-03-18T12:21:57.461Z,937
2019-03-18T12:22:57.837Z,937
2019-03-18T12:23:57.753Z,937
2019-03-18T12:24:57.661Z,936.9
2019-03-18T12:25:57.575Z,936.8
2019-03-18T12:26:57.299Z,936.9
2019-03-18T12:27:57.227Z,937
2019-03-18T12:28:57.165Z,936.9
2019-03-18T12:29:56.916Z,936.4
2019-03-18T12:30:56.815Z,936.9
2019-03-18T12:31:56.561Z,936.9
2019-03-18T12:32:56.965Z,936.8
2019-03-18T12:33:58.429Z,936.9
2019-03-18T12:34:58.347Z,936.8
2019-03-18T12:35:58.312Z,935.7
2019-03-18T12:36:58.229Z,936.9
2019-03-18T12:37:58.137Z,936.9
2019-03-18T12:38:58.035Z,937
2019-03-18T12:39:57.925Z,936.8
2019-03-18T12:40:57.831Z,936.9
2019-03-18T12:41:57.561Z,936.9
2019-03-18T12:42:57.913Z,936.9
2019-03-18T12:43:57.805Z,936.8
2019-03-18T12:44:57.723Z,936.8
2019-03-18T12:45:57.641Z,936.9
2019-03-18T12:46:57.545Z,936.9
2019-03-18T12:47:57.447Z,936.8
2019-03-18T12:48:57.371Z,936.9
2019-03-18T12:49:57.262Z,936.9
2019-03-18T12:50:57.760Z,936.8
2019-03-18T12:51:57.674Z,936.9
2019-03-18T12:52:58.083Z,936.8
2019-03-18T12:53:57.990Z,936.8
2019-03-18T12:54:57.890Z,936.8
2019-03-18T12:55:57.805Z,936.8
2019-03-18T12:56:57.708Z,936.8
2019-03-18T12:57:57.621Z,936.8
2019-03-18T12:58:57.553Z,936.8
2019-03-18T12:59:57.451Z,936.9
2019-03-18T13:00:57.336Z,936.8
2019-03-18T13:01:57.228Z,936.9
2019-03-18T13:02:57.713Z,936.8